sensor_id;sensor_type;location;lat;lon;timestamp;pressure;altitude;pressure_sealevel;temperature;humidity
52957;BME280;38819;42.692;23.342;2023-03-13T00:01:08;95540.75;;;4.81;46.72
52957;BME280;38819;42.692;23.342;2023-03-13T00:03:34;95533.13;;;4.73;46.81
52957;BME280;38819;42.692;23.342;2023-03-13T00:05:59;95544.22;;;4.82;46.73
52957;BME280;38819;42.692;23.342;2023-03-13T00:08:28;95542.22;;;4.72;46.63
52957;BME280;38819;42.692;23.342;2023-03-13T00:10:54;95529.38;;;4.74;46.73
52957;BME280;38819;42.692;23.342;2023-03-13T00:13:19;95529.00;;;4.66;46.52
52957;BME280;38819;42.692;23.342;2023-03-13T00:15:45;95533.38;;;4.72;46.78
52957;BME280;38819;42.692;23.342;2023-03-13T00:18:10;95541.66;;;4.70;46.63
52957;BME280;38819;42.692;23.342;2023-03-13T00:20:36;95555.16;;;4.80;46.99
52957;BME280;38819;42.692;23.342;2023-03-13T00:23:01;95549.81;;;4.80;46.32
52957;BME280;38819;42.692;23.342;2023-03-13T00:25:27;95559.97;;;4.78;46.22
52957;BME280;38819;42.692;23.342;2023-03-13T00:27:52;95552.66;;;4.74;46.34
52957;BME280;38819;42.692;23.342;2023-03-13T00:30:18;95556.59;;;4.66;46.73
52957;BME280;38819;42.692;23.342;2023-03-13T00:32:44;95566.94;;;4.62;46.56
52957;BME280;38819;42.692;23.342;2023-03-13T00:35:14;95564.63;;;4.49;47.03
52957;BME280;38819;42.692;23.342;2023-03-13T00:37:40;95552.38;;;4.53;46.99
52957;BME280;38819;42.692;23.342;2023-03-13T00:40:06;95561.88;;;4.44;47.05
52957;BME280;38819;42.692;23.342;2023-03-13T00:42:33;95559.50;;;4.48;47.10
52957;BME280;38819;42.692;23.342;2023-03-13T00:44:58;95562.63;;;4.39;47.19
52957;BME280;38819;42.692;23.342;2023-03-13T00:47:24;95563.91;;;4.54;47.13
52957;BME280;38819;42.692;23.342;2023-03-13T00:49:49;95558.72;;;4.47;47.01
52957;BME280;38819;42.692;23.342;2023-03-13T00:52:15;95556.22;;;4.40;46.95
52957;BME280;38819;42.692;23.342;2023-03-13T00:54:40;95560.34;;;4.48;47.03
52957;BME280;38819;42.692;23.342;2023-03-13T00:57:06;95551.31;;;4.54;46.90
52957;BME280;38819;42.692;23.342;2023-03-13T00:59:31;95554.66;;;4.61;46.93
52957;BME280;38819;42.692;23.342;2023-03-13T01:01:56;95548.69;;;4.76;46.42
52957;BME280;38819;42.692;23.342;2023-03-13T01:04:22;95556.34;;;4.51;46.84
52957;BME280;38819;42.692;23.342;2023-03-13T01:06:47;95550.44;;;4.49;47.23
52957;BME280;38819;42.692;23.342;2023-03-13T01:09:14;95550.44;;;4.49;47.26
52957;BME280;38819;42.692;23.342;2023-03-13T01:11:41;95556.13;;;4.52;46.79
52957;BME280;38819;42.692;23.342;2023-03-13T01:14:10;95551.84;;;4.51;47.36
52957;BME280;38819;42.692;23.342;2023-03-13T01:16:36;95553.13;;;4.49;46.94
52957;BME280;38819;42.692;23.342;2023-03-13T01:19:05;95551.09;;;4.39;47.35
52957;BME280;38819;42.692;23.342;2023-03-13T01:21:31;95552.19;;;4.38;47.44
52957;BME280;38819;42.692;23.342;2023-03-13T01:23:56;95553.16;;;4.32;47.79
52957;BME280;38819;42.692;23.342;2023-03-13T01:26:23;95557.44;;;4.33;47.41
52957;BME280;38819;42.692;23.342;2023-03-13T01:28:48;95551.81;;;4.34;47.41
52957;BME280;38819;42.692;23.342;2023-03-13T01:31:23;95564.72;;;4.37;47.12
52957;BME280;38819;42.692;23.342;2023-03-13T01:33:52;95568.38;;;4.31;47.34
52957;BME280;38819;42.692;23.342;2023-03-13T01:36:18;95566.03;;;4.35;47.22
52957;BME280;38819;42.692;23.342;2023-03-13T01:38:47;95567.78;;;4.29;47.31
52957;BME280;38819;42.692;23.342;2023-03-13T01:41:12;95566.50;;;4.32;46.87
52957;BME280;38819;42.692;23.342;2023-03-13T01:43:38;95576.50;;;4.36;46.99
52957;BME280;38819;42.692;23.342;2023-03-13T01:46:10;95581.41;;;4.27;47.32
52957;BME280;38819;42.692;23.342;2023-03-13T01:51:29;95575.19;;;4.22;47.46
52957;BME280;38819;42.692;23.342;2023-03-13T01:54:10;95569.09;;;4.26;47.30
52957;BME280;38819;42.692;23.342;2023-03-13T01:56:44;95577.63;;;4.23;47.31
52957;BME280;38819;42.692;23.342;2023-03-13T01:59:16;95582.88;;;4.18;47.54
52957;BME280;38819;42.692;23.342;2023-03-13T02:01:44;95580.38;;;4.12;47.60
52957;BME280;38819;42.692;23.342;2023-03-13T02:04:13;95578.81;;;4.16;47.64
52957;BME280;38819;42.692;23.342;2023-03-13T02:06:42;95579.06;;;4.14;48.04
52957;BME280;38819;42.692;23.342;2023-03-13T02:09:12;95578.66;;;4.05;48.01
52957;BME280;38819;42.692;23.342;2023-03-13T02:11:47;95585.00;;;3.99;49.62
52957;BME280;38819;42.692;23.342;2023-03-13T02:14:16;95574.50;;;3.81;50.44
52957;BME280;38819;42.692;23.342;2023-03-13T02:16:44;95597.19;;;3.78;51.04
52957;BME280;38819;42.692;23.342;2023-03-13T02:19:42;95595.31;;;3.79;51.41
52957;BME280;38819;42.692;23.342;2023-03-13T02:27:50;95609.41;;;3.33;52.92
52957;BME280;38819;42.692;23.342;2023-03-13T02:30:17;95608.63;;;3.33;53.16
52957;BME280;38819;42.692;23.342;2023-03-13T02:32:43;95607.31;;;3.36;53.15
52957;BME280;38819;42.692;23.342;2023-03-13T02:35:16;95609.41;;;3.33;53.08
52957;BME280;38819;42.692;23.342;2023-03-13T02:37:45;95625.94;;;3.19;53.47
52957;BME280;38819;42.692;23.342;2023-03-13T02:40:15;95622.94;;;3.15;53.75
52957;BME280;38819;42.692;23.342;2023-03-13T02:42:43;95631.28;;;3.19;53.85
52957;BME280;38819;42.692;23.342;2023-03-13T02:45:13;95642.53;;;3.09;54.21
52957;BME280;38819;42.692;23.342;2023-03-13T02:47:39;95646.84;;;3.10;54.20
52957;BME280;38819;42.692;23.342;2023-03-13T02:50:05;95649.06;;;3.13;54.21
52957;BME280;38819;42.692;23.342;2023-03-13T02:52:32;95653.09;;;3.15;54.10
52957;BME280;38819;42.692;23.342;2023-03-13T02:55:18;95648.47;;;3.11;53.95
52957;BME280;38819;42.692;23.342;2023-03-13T02:57:47;95647.78;;;3.04;54.00
52957;BME280;38819;42.692;23.342;2023-03-13T03:00:14;95650.34;;;2.99;54.06
52957;BME280;38819;42.692;23.342;2023-03-13T03:02:44;95648.72;;;2.97;53.99
52957;BME280;38819;42.692;23.342;2023-03-13T03:05:11;95647.78;;;2.92;54.48
52957;BME280;38819;42.692;23.342;2023-03-13T03:07:37;95644.31;;;2.91;54.54
52957;BME280;38819;42.692;23.342;2023-03-13T03:10:03;95650.69;;;2.78;55.14
52957;BME280;38819;42.692;23.342;2023-03-13T03:12:28;95637.81;;;2.75;54.92
52957;BME280;38819;42.692;23.342;2023-03-13T03:14:54;95648.03;;;2.78;54.98
52957;BME280;38819;42.692;23.342;2023-03-13T03:17:19;95659.41;;;2.86;54.76
52957;BME280;38819;42.692;23.342;2023-03-13T03:19:45;95666.13;;;2.76;54.73
52957;BME280;38819;42.692;23.342;2023-03-13T03:22:10;95665.31;;;2.76;54.53
52957;BME280;38819;42.692;23.342;2023-03-13T03:24:36;95672.16;;;2.72;54.59
52957;BME280;38819;42.692;23.342;2023-03-13T03:27:01;95688.59;;;2.69;54.77
52957;BME280;38819;42.692;23.342;2023-03-13T03:29:26;95692.22;;;2.63;55.04
52957;BME280;38819;42.692;23.342;2023-03-13T03:31:52;95688.84;;;2.67;54.96
52957;BME280;38819;42.692;23.342;2023-03-13T03:34:18;95691.03;;;2.58;55.33
52957;BME280;38819;42.692;23.342;2023-03-13T03:36:44;95688.00;;;2.43;55.61
52957;BME280;38819;42.692;23.342;2023-03-13T03:39:10;95688.81;;;2.44;55.42
52957;BME280;38819;42.692;23.342;2023-03-13T03:41:35;95690.22;;;2.46;55.66
52957;BME280;38819;42.692;23.342;2023-03-13T03:44:02;95699.13;;;2.40;55.59
52957;BME280;38819;42.692;23.342;2023-03-13T03:46:28;95711.97;;;2.31;55.77
52957;BME280;38819;42.692;23.342;2023-03-13T03:48:54;95725.47;;;2.48;55.70
52957;BME280;38819;42.692;23.342;2023-03-13T03:51:20;95721.16;;;2.47;55.65
52957;BME280;38819;42.692;23.342;2023-03-13T03:53:46;95721.16;;;2.47;55.68
52957;BME280;38819;42.692;23.342;2023-03-13T03:56:12;95711.88;;;2.38;56.10
52957;BME280;38819;42.692;23.342;2023-03-13T03:58:37;95712.34;;;2.35;56.50
52957;BME280;38819;42.692;23.342;2023-03-13T04:01:03;95727.78;;;2.45;56.30
52957;BME280;38819;42.692;23.342;2023-03-13T04:03:29;95733.34;;;2.43;56.44
52957;BME280;38819;42.692;23.342;2023-03-13T04:05:54;95735.75;;;2.33;56.48
52957;BME280;38819;42.692;23.342;2023-03-13T04:08:20;95726.69;;;2.34;56.56
52957;BME280;38819;42.692;23.342;2023-03-13T04:10:46;95735.03;;;2.26;56.90
52957;BME280;38819;42.692;23.342;2023-03-13T04:13:11;95748.16;;;2.39;56.55
52957;BME280;38819;42.692;23.342;2023-03-13T04:15:38;95743.50;;;2.34;56.55
52957;BME280;38819;42.692;23.342;2023-03-13T04:18:04;95740.72;;;2.29;56.74
52957;BME280;38819;42.692;23.342;2023-03-13T04:20:30;95753.81;;;2.31;57.08
52957;BME280;38819;42.692;23.342;2023-03-13T04:22:55;95757.47;;;2.18;57.25
52957;BME280;38819;42.692;23.342;2023-03-13T04:25:21;95761.78;;;2.19;57.42
52957;BME280;38819;42.692;23.342;2023-03-13T04:27:47;95763.03;;;2.16;57.66
52957;BME280;38819;42.692;23.342;2023-03-13T04:30:12;95771.25;;;2.15;58.21
52957;BME280;38819;42.692;23.342;2023-03-13T04:32:38;95768.13;;;2.18;57.87
52957;BME280;38819;42.692;23.342;2023-03-13T04:35:04;95776.22;;;2.11;57.98
52957;BME280;38819;42.692;23.342;2023-03-13T04:37:29;95775.91;;;2.19;57.80
52957;BME280;38819;42.692;23.342;2023-03-13T04:39:55;95787.69;;;2.12;58.08
52957;BME280;38819;42.692;23.342;2023-03-13T04:42:20;95787.41;;;2.01;58.16
52957;BME280;38819;42.692;23.342;2023-03-13T04:44:46;95799.41;;;2.11;57.91
52957;BME280;38819;42.692;23.342;2023-03-13T04:47:11;95796.97;;;2.09;57.63
52957;BME280;38819;42.692;23.342;2023-03-13T04:49:37;95784.44;;;2.10;57.74
52957;BME280;38819;42.692;23.342;2023-03-13T04:52:02;95797.81;;;2.21;58.18
52957;BME280;38819;42.692;23.342;2023-03-13T04:54:28;95801.63;;;2.44;57.67
52957;BME280;38819;42.692;23.342;2023-03-13T04:56:53;95798.13;;;2.44;57.92
52957;BME280;38819;42.692;23.342;2023-03-13T04:59:19;95794.13;;;2.53;57.58
52957;BME280;38819;42.692;23.342;2023-03-13T05:01:44;95806.63;;;2.52;57.40
52957;BME280;38819;42.692;23.342;2023-03-13T05:04:10;95802.44;;;2.45;57.65
52957;BME280;38819;42.692;23.342;2023-03-13T05:06:36;95806.88;;;2.51;57.96
52957;BME280;38819;42.692;23.342;2023-03-13T05:09:02;95805.59;;;2.53;58.03
52957;BME280;38819;42.692;23.342;2023-03-13T05:11:28;95800.91;;;2.49;58.25
52957;BME280;38819;42.692;23.342;2023-03-13T05:13:53;95813.22;;;2.50;57.97
52957;BME280;38819;42.692;23.342;2023-03-13T05:16:19;95810.97;;;2.35;58.36
52957;BME280;38819;42.692;23.342;2023-03-13T05:18:44;95812.50;;;2.43;58.18
52957;BME280;38819;42.692;23.342;2023-03-13T05:21:10;95814.81;;;2.39;58.15
52957;BME280;38819;42.692;23.342;2023-03-13T05:23:35;95825.72;;;2.37;58.18
52957;BME280;38819;42.692;23.342;2023-03-13T05:26:01;95822.72;;;2.46;57.79
52957;BME280;38819;42.692;23.342;2023-03-13T05:28:26;95830.03;;;2.50;57.96
52957;BME280;38819;42.692;23.342;2023-03-13T05:30:52;95826.78;;;2.48;57.98
52957;BME280;38819;42.692;23.342;2023-03-13T05:33:17;95829.72;;;2.58;57.63
52957;BME280;38819;42.692;23.342;2023-03-13T05:35:44;95836.41;;;2.49;57.04
52957;BME280;38819;42.692;23.342;2023-03-13T05:38:10;95838.25;;;2.49;56.83
52957;BME280;38819;42.692;23.342;2023-03-13T05:40:36;95826.72;;;2.36;56.77
52957;BME280;38819;42.692;23.342;2023-03-13T05:43:01;95830.44;;;2.35;57.10
52957;BME280;38819;42.692;23.342;2023-03-13T05:45:27;95842.72;;;2.36;57.18
52957;BME280;38819;42.692;23.342;2023-03-13T05:47:52;95838.81;;;2.39;57.46
52957;BME280;38819;42.692;23.342;2023-03-13T05:50:18;95840.34;;;2.47;56.88
52957;BME280;38819;42.692;23.342;2023-03-13T05:52:43;95847.88;;;2.50;56.14
52957;BME280;38819;42.692;23.342;2023-03-13T05:55:09;95860.78;;;2.53;56.66
52957;BME280;38819;42.692;23.342;2023-03-13T05:57:34;95855.13;;;2.31;56.81
52957;BME280;38819;42.692;23.342;2023-03-13T06:00:00;95851.13;;;2.21;57.22
52957;BME280;38819;42.692;23.342;2023-03-13T06:02:25;95855.72;;;2.14;57.70
52957;BME280;38819;42.692;23.342;2023-03-13T06:04:51;95867.09;;;2.21;57.46
52957;BME280;38819;42.692;23.342;2023-03-13T06:07:16;95861.63;;;2.35;57.46
52957;BME280;38819;42.692;23.342;2023-03-13T06:09:42;95865.69;;;2.37;57.24
52957;BME280;38819;42.692;23.342;2023-03-13T06:12:09;95864.69;;;2.50;56.81
52957;BME280;38819;42.692;23.342;2023-03-13T06:14:35;95856.16;;;2.60;55.90
52957;BME280;38819;42.692;23.342;2023-03-13T06:17:02;95859.50;;;2.55;57.10
52957;BME280;38819;42.692;23.342;2023-03-13T06:19:28;95857.13;;;2.47;57.16
52957;BME280;38819;42.692;23.342;2023-03-13T06:21:53;95873.88;;;2.54;57.10
52957;BME280;38819;42.692;23.342;2023-03-13T06:24:19;95869.66;;;2.47;57.20
52957;BME280;38819;42.692;23.342;2023-03-13T06:26:47;95865.31;;;2.34;57.45
52957;BME280;38819;42.692;23.342;2023-03-13T06:29:12;95862.03;;;2.50;56.73
52957;BME280;38819;42.692;23.342;2023-03-13T06:31:38;95863.75;;;2.45;56.89
52957;BME280;38819;42.692;23.342;2023-03-13T06:34:03;95863.31;;;2.48;57.10
52957;BME280;38819;42.692;23.342;2023-03-13T06:36:29;95848.03;;;2.55;56.93
52957;BME280;38819;42.692;23.342;2023-03-13T06:38:54;95840.69;;;2.50;56.68
52957;BME280;38819;42.692;23.342;2023-03-13T06:41:20;95840.50;;;2.64;55.93
52957;BME280;38819;42.692;23.342;2023-03-13T06:43:45;95854.50;;;2.77;55.57
52957;BME280;38819;42.692;23.342;2023-03-13T06:46:16;95850.94;;;2.95;54.48
52957;BME280;38819;42.692;23.342;2023-03-13T06:48:42;95850.38;;;3.05;54.18
52957;BME280;38819;42.692;23.342;2023-03-13T06:51:12;95860.16;;;3.23;53.65
52957;BME280;38819;42.692;23.342;2023-03-13T06:53:38;95850.53;;;3.34;53.51
52957;BME280;38819;42.692;23.342;2023-03-13T06:56:04;95863.53;;;3.42;53.12
52957;BME280;38819;42.692;23.342;2023-03-13T06:58:30;95851.13;;;3.36;53.26
52957;BME280;38819;42.692;23.342;2023-03-13T07:00:55;95845.28;;;3.27;53.76
52957;BME280;38819;42.692;23.342;2023-03-13T07:03:21;95845.41;;;3.21;53.88
52957;BME280;38819;42.692;23.342;2023-03-13T07:05:46;95846.34;;;3.14;54.21
52957;BME280;38819;42.692;23.342;2023-03-13T07:08:12;95843.56;;;3.09;54.23
52957;BME280;38819;42.692;23.342;2023-03-13T07:10:37;95855.34;;;2.90;55.14
52957;BME280;38819;42.692;23.342;2023-03-13T07:13:03;95847.56;;;3.00;54.82
52957;BME280;38819;42.692;23.342;2023-03-13T07:15:28;95855.25;;;3.08;55.08
52957;BME280;38819;42.692;23.342;2023-03-13T07:17:56;95848.66;;;3.11;54.55
52957;BME280;38819;42.692;23.342;2023-03-13T07:20:22;95838.69;;;3.18;54.91
52957;BME280;38819;42.692;23.342;2023-03-13T07:22:51;95835.91;;;3.25;54.58
52957;BME280;38819;42.692;23.342;2023-03-13T07:25:17;95841.47;;;3.47;54.15
52957;BME280;38819;42.692;23.342;2023-03-13T07:27:42;95841.13;;;3.43;54.04
52957;BME280;38819;42.692;23.342;2023-03-13T07:30:08;95850.31;;;3.47;53.49
52957;BME280;38819;42.692;23.342;2023-03-13T07:32:34;95833.81;;;3.50;53.62
52957;BME280;38819;42.692;23.342;2023-03-13T07:34:59;95838.94;;;3.40;53.94
52957;BME280;38819;42.692;23.342;2023-03-13T07:37:27;95838.00;;;3.58;53.24
52957;BME280;38819;42.692;23.342;2023-03-13T07:39:52;95833.59;;;3.64;53.25
52957;BME280;38819;42.692;23.342;2023-03-13T07:42:18;95844.03;;;3.65;53.36
52957;BME280;38819;42.692;23.342;2023-03-13T07:44:43;95846.81;;;3.59;53.54
52957;BME280;38819;42.692;23.342;2023-03-13T07:47:09;95845.44;;;3.56;53.82
52957;BME280;38819;42.692;23.342;2023-03-13T07:49:34;95842.53;;;3.69;53.41
52957;BME280;38819;42.692;23.342;2023-03-13T07:52:05;95840.88;;;3.80;53.21
52957;BME280;38819;42.692;23.342;2023-03-13T07:54:30;95843.81;;;3.67;53.17
52957;BME280;38819;42.692;23.342;2023-03-13T07:56:56;95838.69;;;3.65;53.30
52957;BME280;38819;42.692;23.342;2023-03-13T07:59:21;95831.38;;;3.84;53.07
52957;BME280;38819;42.692;23.342;2023-03-13T08:01:47;95832.50;;;4.00;53.07
52957;BME280;38819;42.692;23.342;2023-03-13T08:04:13;95828.28;;;4.16;52.36
52957;BME280;38819;42.692;23.342;2023-03-13T08:06:38;95821.41;;;4.20;51.77
52957;BME280;38819;42.692;23.342;2023-03-13T08:09:06;95817.31;;;4.30;51.35
52957;BME280;38819;42.692;23.342;2023-03-13T08:11:31;95818.88;;;4.42;50.99
52957;BME280;38819;42.692;23.342;2023-03-13T08:13:57;95817.69;;;4.50;51.35
52957;BME280;38819;42.692;23.342;2023-03-13T08:16:28;95819.19;;;4.58;51.03
52957;BME280;38819;42.692;23.342;2023-03-13T08:18:56;95814.59;;;4.70;51.07
52957;BME280;38819;42.692;23.342;2023-03-13T08:21:28;95815.59;;;4.52;50.44
52957;BME280;38819;42.692;23.342;2023-03-13T08:23:58;95812.59;;;4.49;50.94
52957;BME280;38819;42.692;23.342;2023-03-13T08:26:28;95815.16;;;4.43;51.19
52957;BME280;38819;42.692;23.342;2023-03-13T08:29:03;95828.06;;;4.47;51.21
52957;BME280;38819;42.692;23.342;2023-03-13T08:31:33;95834.00;;;4.49;51.12
52957;BME280;38819;42.692;23.342;2023-03-13T08:34:00;95834.28;;;4.64;50.82
52957;BME280;38819;42.692;23.342;2023-03-13T08:36:31;95837.41;;;4.73;50.39
52957;BME280;38819;42.692;23.342;2023-03-13T08:38:59;95826.63;;;4.85;50.36
52957;BME280;38819;42.692;23.342;2023-03-13T08:41:27;95832.47;;;4.81;49.49
52957;BME280;38819;42.692;23.342;2023-03-13T08:43:54;95828.78;;;4.88;49.80
52957;BME280;38819;42.692;23.342;2023-03-13T08:46:20;95828.25;;;5.03;49.71
52957;BME280;38819;42.692;23.342;2023-03-13T08:48:53;95816.50;;;5.04;49.70
52957;BME280;38819;42.692;23.342;2023-03-13T08:51:22;95816.50;;;5.04;49.03
52957;BME280;38819;42.692;23.342;2023-03-13T08:53:48;95823.00;;;5.25;48.88
52957;BME280;38819;42.692;23.342;2023-03-13T08:56:16;95814.66;;;5.38;48.64
52957;BME280;38819;42.692;23.342;2023-03-13T08:58:42;95819.56;;;5.46;48.25
52957;BME280;38819;42.692;23.342;2023-03-13T09:01:10;95812.75;;;5.55;48.15
52957;BME280;38819;42.692;23.342;2023-03-13T09:03:36;95816.06;;;5.63;47.74
52957;BME280;38819;42.692;23.342;2023-03-13T09:06:02;95817.22;;;5.50;47.88
52957;BME280;38819;42.692;23.342;2023-03-13T09:08:29;95811.53;;;5.46;47.89
52957;BME280;38819;42.692;23.342;2023-03-13T09:10:59;95816.47;;;5.54;47.90
52957;BME280;38819;42.692;23.342;2023-03-13T09:13:26;95819.50;;;5.41;47.76
52957;BME280;38819;42.692;23.342;2023-03-13T09:15:54;95814.22;;;5.46;47.62
52957;BME280;38819;42.692;23.342;2023-03-13T09:18:19;95810.94;;;5.61;47.66
52957;BME280;38819;42.692;23.342;2023-03-13T09:20:45;95792.06;;;5.73;47.37
52957;BME280;38819;42.692;23.342;2023-03-13T09:23:10;95793.53;;;5.81;47.44
52957;BME280;38819;42.692;23.342;2023-03-13T09:25:37;95801.50;;;5.75;47.49
52957;BME280;38819;42.692;23.342;2023-03-13T09:28:03;95798.19;;;5.68;47.52
52957;BME280;38819;42.692;23.342;2023-03-13T09:30:28;95807.44;;;5.78;47.29
52957;BME280;38819;42.692;23.342;2023-03-13T09:32:53;95814.59;;;5.72;47.64
52957;BME280;38819;42.692;23.342;2023-03-13T09:35:19;95812.16;;;5.70;47.78
52957;BME280;38819;42.692;23.342;2023-03-13T09:37:44;95809.38;;;5.82;46.76
52957;BME280;38819;42.692;23.342;2023-03-13T09:40:13;95811.88;;;5.89;46.74
52957;BME280;38819;42.692;23.342;2023-03-13T09:42:46;95807.38;;;5.94;46.37
52957;BME280;38819;42.692;23.342;2023-03-13T09:45:26;95797.44;;;6.12;45.84
52957;BME280;38819;42.692;23.342;2023-03-13T09:51:16;95790.72;;;6.32;45.72
52957;BME280;38819;42.692;23.342;2023-03-13T09:53:48;95788.94;;;6.42;45.32
52957;BME280;38819;42.692;23.342;2023-03-13T09:56:21;95786.38;;;6.53;45.40
52957;BME280;38819;42.692;23.342;2023-03-13T09:58:58;95786.75;;;6.39;45.72
52957;BME280;38819;42.692;23.342;2023-03-13T10:01:29;95790.56;;;6.43;45.62
52957;BME280;38819;42.692;23.342;2023-03-13T10:06:47;95783.31;;;6.44;45.18
52957;BME280;38819;42.692;23.342;2023-03-13T10:09:18;95778.50;;;6.46;45.16
52957;BME280;38819;42.692;23.342;2023-03-13T10:12:06;95778.91;;;6.60;45.14
52957;BME280;38819;42.692;23.342;2023-03-13T10:19:41;95759.09;;;6.93;44.86
52957;BME280;38819;42.692;23.342;2023-03-13T10:22:10;95745.75;;;7.03;44.23
52957;BME280;38819;42.692;23.342;2023-03-13T10:24:49;95748.69;;;7.02;43.79
52957;BME280;38819;42.692;23.342;2023-03-13T10:27:16;95739.91;;;7.12;43.63
52957;BME280;38819;42.692;23.342;2023-03-13T10:29:41;95732.91;;;7.11;43.98
52957;BME280;38819;42.692;23.342;2023-03-13T10:32:11;95734.63;;;7.22;43.87
52957;BME280;38819;42.692;23.342;2023-03-13T10:39:51;95722.03;;;7.33;43.81
52957;BME280;38819;42.692;23.342;2023-03-13T10:42:27;95712.97;;;7.44;44.24
52957;BME280;38819;42.692;23.342;2023-03-13T10:45:00;95711.91;;;7.45;44.21
52957;BME280;38819;42.692;23.342;2023-03-13T10:47:33;95705.19;;;7.48;43.89
52957;BME280;38819;42.692;23.342;2023-03-13T10:49:59;95704.34;;;7.37;43.80
52957;BME280;38819;42.692;23.342;2023-03-13T10:52:44;95710.81;;;7.41;43.69
52957;BME280;38819;42.692;23.342;2023-03-13T10:55:12;95703.63;;;7.52;43.10
52957;BME280;38819;42.692;23.342;2023-03-13T10:57:38;95694.53;;;7.68;43.19
52957;BME280;38819;42.692;23.342;2023-03-13T11:02:52;95699.13;;;7.73;43.70
52957;BME280;38819;42.692;23.342;2023-03-13T11:07:53;95685.19;;;7.81;43.88
52957;BME280;38819;42.692;23.342;2023-03-13T11:10:28;95677.69;;;7.93;43.13
52957;BME280;38819;42.692;23.342;2023-03-13T11:13:01;95673.97;;;8.05;43.48
52957;BME280;38819;42.692;23.342;2023-03-13T11:15:34;95674.81;;;8.15;42.67
52957;BME280;38819;42.692;23.342;2023-03-13T11:18:09;95670.00;;;8.33;42.33
52957;BME280;38819;42.692;23.342;2023-03-13T11:20:39;95661.13;;;8.32;41.98
52957;BME280;38819;42.692;23.342;2023-03-13T11:23:26;95666.25;;;8.34;41.74
52957;BME280;38819;42.692;23.342;2023-03-13T11:33:51;95645.78;;;8.23;42.90
52957;BME280;38819;42.692;23.342;2023-03-13T11:44:36;95631.00;;;8.41;42.62
52957;BME280;38819;42.692;23.342;2023-03-13T11:55:18;95605.19;;;8.76;41.77
52957;BME280;38819;42.692;23.342;2023-03-13T12:00:35;95614.06;;;8.76;41.81
52957;BME280;38819;42.692;23.342;2023-03-13T12:03:26;95601.41;;;8.61;42.32
52957;BME280;38819;42.692;23.342;2023-03-13T12:05:58;95588.19;;;8.75;42.09
52957;BME280;38819;42.692;23.342;2023-03-13T12:08:36;95584.41;;;8.86;41.84
52957;BME280;38819;42.692;23.342;2023-03-13T12:11:32;95576.03;;;8.93;41.59
52957;BME280;38819;42.692;23.342;2023-03-13T12:14:07;95576.84;;;9.04;41.22
52957;BME280;38819;42.692;23.342;2023-03-13T12:16:42;95573.00;;;9.20;41.12
52957;BME280;38819;42.692;23.342;2023-03-13T12:19:12;95574.06;;;9.24;40.94
52957;BME280;38819;42.692;23.342;2023-03-13T12:22:02;95573.00;;;9.20;41.03
52957;BME280;38819;42.692;23.342;2023-03-13T12:24:38;95561.66;;;9.28;41.01
52957;BME280;38819;42.692;23.342;2023-03-13T12:27:57;95572.47;;;9.18;40.58
52957;BME280;38819;42.692;23.342;2023-03-13T12:29:58;95563.31;;;9.19;40.84
52957;BME280;38819;42.692;23.342;2023-03-13T12:37:40;95553.84;;;9.32;40.70
52957;BME280;38819;42.692;23.342;2023-03-13T12:42:56;95548.16;;;9.39;41.21
52957;BME280;38819;42.692;23.342;2023-03-13T12:45:23;95552.75;;;9.33;40.58
52957;BME280;38819;42.692;23.342;2023-03-13T12:56:02;95549.34;;;9.72;39.93
52957;BME280;38819;42.692;23.342;2023-03-13T12:58:52;95557.38;;;9.77;39.78
52957;BME280;38819;42.692;23.342;2023-03-13T13:01:39;95559.81;;;9.79;39.68
52957;BME280;38819;42.692;23.342;2023-03-13T13:04:11;95562.03;;;9.67;39.76
52957;BME280;38819;42.692;23.342;2023-03-13T13:09:22;95558.06;;;9.98;39.65
52957;BME280;38819;42.692;23.342;2023-03-13T13:11:49;95551.25;;;10.06;39.40
52957;BME280;38819;42.692;23.342;2023-03-13T13:17:02;95553.19;;;10.00;39.63
52957;BME280;38819;42.692;23.342;2023-03-13T13:32:32;95536.66;;;10.07;38.67
52957;BME280;38819;42.692;23.342;2023-03-13T13:35:03;95539.91;;;10.09;38.45
52957;BME280;38819;42.692;23.342;2023-03-13T13:37:30;95532.94;;;10.03;38.57
52957;BME280;38819;42.692;23.342;2023-03-13T13:40:18;95526.47;;;10.04;38.20
52957;BME280;38819;42.692;23.342;2023-03-13T13:43:18;95528.72;;;10.26;37.94
52957;BME280;38819;42.692;23.342;2023-03-13T13:46:01;95526.34;;;10.19;37.72
52957;BME280;38819;42.692;23.342;2023-03-13T13:48:37;95528.75;;;10.21;37.88
52957;BME280;38819;42.692;23.342;2023-03-13T13:53:58;95518.31;;;10.44;37.65
52957;BME280;38819;42.692;23.342;2023-03-13T14:01:43;95512.16;;;10.38;37.87
52957;BME280;38819;42.692;23.342;2023-03-13T14:04:18;95516.50;;;10.39;37.36
52957;BME280;38819;42.692;23.342;2023-03-13T14:06:50;95516.50;;;10.39;37.76
52957;BME280;38819;42.692;23.342;2023-03-13T14:09:30;95516.50;;;10.34;37.87
52957;BME280;38819;42.692;23.342;2023-03-13T14:11:57;95512.41;;;10.42;38.22
52957;BME280;38819;42.692;23.342;2023-03-13T14:14:23;95516.16;;;10.46;37.98
52957;BME280;38819;42.692;23.342;2023-03-13T14:16:57;95513.69;;;10.49;37.87
52957;BME280;38819;42.692;23.342;2023-03-13T14:19:27;95505.78;;;10.58;37.50
52957;BME280;38819;42.692;23.342;2023-03-13T14:22:20;95513.38;;;10.56;37.31
52957;BME280;38819;42.692;23.342;2023-03-13T14:24:56;95501.19;;;10.59;37.13
52957;BME280;38819;42.692;23.342;2023-03-13T14:27:22;95508.47;;;10.58;37.34
52957;BME280;38819;42.692;23.342;2023-03-13T14:30:05;95506.00;;;10.62;37.32
52957;BME280;38819;42.692;23.342;2023-03-13T14:32:31;95498.41;;;10.64;37.64
52957;BME280;38819;42.692;23.342;2023-03-13T14:34:56;95495.72;;;10.64;36.91
52957;BME280;38819;42.692;23.342;2023-03-13T14:37:33;95505.72;;;10.63;36.64
52957;BME280;38819;42.692;23.342;2023-03-13T14:40:18;95501.63;;;10.66;37.07
52957;BME280;38819;42.692;23.342;2023-03-13T14:42:47;95503.19;;;10.72;37.01
52957;BME280;38819;42.692;23.342;2023-03-13T14:45:14;95507.97;;;10.80;37.30
52957;BME280;38819;42.692;23.342;2023-03-13T14:47:44;95496.53;;;10.88;36.72